Time;durP1;ratioP1;P1;durP2;ratioP2;P2;SDS_P1;SDS_P2;PMS_P1;PMS_P2;Temp;Humidity;BMP_temperature;BMP_pressure;BME280_temperature;BME280_humidity;BME280_pressure;Samples;Min_cycle;Max_cycle;Signal;HPM_P1;HPM_P2
2021/08/18 00:01:28;;;;;;;7.63;5.15;;;16.70;72.70;;;;;;4984431;28;20085;-63
2021/08/18 00:03:54;;;;;;;7.47;5.32;;;16.60;73.00;;;;;;4987391;28;20038;-63
2021/08/18 00:06:20;;;;;;;9.27;5.13;;;16.60;73.20;;;;;;5003082;28;20085;-63
2021/08/18 00:08:45;;;;;;;7.93;5.03;;;16.60;73.20;;;;;;4984582;28;20034;-63
2021/08/18 00:11:12;;;;;;;8.68;5.15;;;16.60;73.30;;;;;;4995855;28;20038;-63
2021/08/18 00:13:37;;;;;;;8.00;5.10;;;16.60;73.30;;;;;;4987624;28;20126;-63
2021/08/18 00:16:04;;;;;;;8.65;5.57;;;16.60;73.30;;;;;;4986953;28;20033;-63
2021/08/18 00:18:30;;;;;;;9.23;5.55;;;16.60;73.20;;;;;;4986132;28;20037;-63
2021/08/18 00:20:56;;;;;;;11.30;6.18;;;16.60;73.10;;;;;;4986872;28;20494;-63
2021/08/18 00:23:21;;;;;;;11.70;6.55;;;16.60;73.30;;;;;;4984318;28;20062;-62
2021/08/18 00:25:47;;;;;;;11.35;6.53;;;16.50;73.60;;;;;;4986163;28;20057;-63
2021/08/18 00:28:13;;;;;;;13.48;6.80;;;16.50;74.40;;;;;;4984874;28;20117;-62
2021/08/18 00:30:39;;;;;;;12.63;6.50;;;16.50;73.40;;;;;;4983690;28;20064;-62
2021/08/18 00:33:05;;;;;;;9.60;6.32;;;16.50;73.50;;;;;;4998674;28;20035;-63
2021/08/18 00:35:31;;;;;;;10.85;6.60;;;16.50;73.70;;;;;;4985759;28;20041;-63
2021/08/18 00:37:56;;;;;;;14.23;7.53;;;16.50;73.80;;;;;;4983679;28;20402;-63
2021/08/18 00:40:22;;;;;;;10.68;6.95;;;16.50;73.70;;;;;;4987729;28;20118;-63
2021/08/18 00:42:48;;;;;;;15.02;7.35;;;16.50;73.80;;;;;;4985352;28;20039;-64
2021/08/18 00:45:16;;;;;;;11.85;6.85;;;16.50;73.70;;;;;;4984151;28;20036;-63
2021/08/18 00:47:45;;;;;;;12.38;7.25;;;16.50;73.90;;;;;;4983656;28;20042;-64
2021/08/18 00:50:14;;;;;;;11.75;7.22;;;16.50;74.00;;;;;;4985230;28;20096;-63
2021/08/18 00:52:40;;;;;;;12.13;6.93;;;16.40;73.70;;;;;;4983749;28;20084;-63
2021/08/18 00:55:11;;;;;;;11.77;7.15;;;16.40;73.70;;;;;;4985539;28;20034;-63
2021/08/18 00:57:38;;;;;;;11.88;7.18;;;16.50;74.00;;;;;;4988679;28;20050;-63
2021/08/18 01:00:06;;;;;;;13.27;8.13;;;16.40;73.90;;;;;;4987057;28;20042;-63
2021/08/18 01:02:36;;;;;;;12.45;7.75;;;16.40;74.00;;;;;;4979273;28;20046;-63
2021/08/18 01:05:22;;;;;;;14.52;7.30;;;16.40;74.10;;;;;;4987340;28;21004;-63
2021/08/18 01:07:49;;;;;;;12.75;7.55;;;16.40;74.10;;;;;;4986975;28;20085;-63
2021/08/18 01:10:18;;;;;;;11.93;7.50;;;16.40;74.10;;;;;;4986086;28;20035;-63
2021/08/18 01:12:43;;;;;;;14.10;7.03;;;16.40;74.40;;;;;;4982449;28;20031;-63
2021/08/18 01:15:12;;;;;;;11.38;7.05;;;16.30;74.00;;;;;;4988006;28;20041;-63
2021/08/18 01:17:46;;;;;;;13.30;7.80;;;16.30;74.20;;;;;;4987242;28;20085;-63
2021/08/18 01:20:16;;;;;;;14.35;7.78;;;16.30;74.50;;;;;;4986925;28;20030;-63
2021/08/18 01:22:42;;;;;;;13.07;7.72;;;16.30;74.30;;;;;;4984042;28;20534;-63
2021/08/18 01:25:09;;;;;;;12.43;7.50;;;16.30;74.40;;;;;;4978967;28;20081;-63
2021/08/18 01:27:37;;;;;;;14.95;7.15;;;16.30;74.60;;;;;;5000979;28;20042;-63
2021/08/18 01:30:06;;;;;;;11.05;7.38;;;16.30;74.70;;;;;;4985256;28;20069;-63
2021/08/18 01:32:52;;;;;;;13.38;7.18;;;16.20;74.70;;;;;;4991763;28;20113;-63
2021/08/18 01:35:33;;;;;;;12.32;7.43;;;16.30;75.30;;;;;;4986024;28;20042;-63
2021/08/18 01:38:01;;;;;;;14.38;7.57;;;16.30;75.10;;;;;;4986214;28;20031;-63
2021/08/18 01:40:27;;;;;;;16.42;7.68;;;16.20;74.70;;;;;;4985905;28;20034;-63
2021/08/18 01:42:53;;;;;;;11.18;7.30;;;16.30;74.80;;;;;;4983730;28;20039;-63
2021/08/18 01:45:25;;;;;;;11.88;7.65;;;16.20;74.90;;;;;;5000605;28;20042;-63
2021/08/18 01:47:51;;;;;;;12.93;7.13;;;16.30;75.40;;;;;;4984628;28;20042;-62
2021/08/18 01:50:18;;;;;;;11.40;7.35;;;16.20;74.90;;;;;;5002501;28;20088;-63
2021/08/18 01:52:44;;;;;;;13.55;7.68;;;16.20;75.10;;;;;;4982999;28;20038;-63
2021/08/18 01:55:10;;;;;;;13.55;7.60;;;16.20;75.20;;;;;;5000831;28;20540;-63
2021/08/18 01:57:38;;;;;;;13.73;7.90;;;16.20;75.40;;;;;;4985656;28;20054;-63
2021/08/18 02:00:05;;;;;;;12.02;7.47;;;16.20;75.30;;;;;;4984056;28;20034;-63
2021/08/18 02:02:31;;;;;;;10.63;6.78;;;16.20;75.20;;;;;;4983682;28;20077;-63
2021/08/18 02:04:57;;;;;;;13.13;7.88;;;16.20;75.10;;;;;;4984831;28;20042;-64
2021/08/18 02:07:23;;;;;;;13.10;7.68;;;16.30;75.30;;;;;;4986294;28;20038;-63
2021/08/18 02:09:50;;;;;;;12.93;7.55;;;16.20;76.10;;;;;;4985583;28;20117;-64
2021/08/18 02:12:15;;;;;;;15.85;8.35;;;16.20;75.20;;;;;;4992385;28;20096;-64
2021/08/18 02:14:41;;;;;;;13.00;7.50;;;16.20;75.20;;;;;;4985141;28;20113;-63
2021/08/18 02:17:08;;;;;;;11.80;7.82;;;16.20;75.20;;;;;;4986785;28;20038;-63
2021/08/18 02:19:34;;;;;;;13.25;7.68;;;16.20;75.30;;;;;;4985816;28;20548;-63
2021/08/18 02:21:59;;;;;;;12.60;7.10;;;16.30;75.20;;;;;;4985973;28;20038;-63
2021/08/18 02:24:25;;;;;;;10.90;6.95;;;16.20;75.20;;;;;;4985721;28;20096;-63
2021/08/18 02:26:51;;;;;;;12.85;7.65;;;16.20;75.10;;;;;;4986976;28;20066;-63
2021/08/18 02:29:16;;;;;;;11.23;7.25;;;16.20;75.10;;;;;;4984530;28;20481;-63
2021/08/18 02:31:42;;;;;;;10.50;7.13;;;16.30;75.20;;;;;;4999356;28;20038;-63
2021/08/18 02:34:09;;;;;;;12.25;7.38;;;16.20;75.10;;;;;;4999736;28;20036;-63
2021/08/18 02:36:35;;;;;;;12.27;7.10;;;16.20;75.20;;;;;;4985749;28;20045;-63
2021/08/18 02:39:02;;;;;;;11.48;7.03;;;16.30;75.30;;;;;;4985034;28;20454;-63
2021/08/18 02:41:28;;;;;;;12.95;7.70;;;16.30;75.30;;;;;;4985958;28;20030;-63
2021/08/18 02:43:54;;;;;;;14.73;7.75;;;16.30;75.20;;;;;;4983112;28;20053;-63
2021/08/18 02:46:19;;;;;;;12.85;7.50;;;16.30;75.30;;;;;;4985018;28;20529;-63
2021/08/18 02:48:45;;;;;;;12.68;7.57;;;16.20;75.10;;;;;;4984771;28;20054;-63
2021/08/18 02:51:11;;;;;;;13.60;7.60;;;16.20;75.10;;;;;;4985657;28;20054;-63
2021/08/18 02:53:36;;;;;;;13.13;7.47;;;16.20;75.10;;;;;;4983732;28;20143;-64
2021/08/18 02:56:02;;;;;;;12.40;7.18;;;16.30;75.20;;;;;;4984801;28;20027;-63
2021/08/18 02:58:30;;;;;;;12.43;7.72;;;16.30;75.10;;;;;;4984528;28;20097;-63
2021/08/18 03:00:56;;;;;;;12.27;7.47;;;16.30;75.30;;;;;;4986149;28;20497;-63
2021/08/18 03:03:21;;;;;;;12.25;6.93;;;16.20;75.30;;;;;;4984284;28;20122;-63
2021/08/18 03:05:47;;;;;;;11.68;7.00;;;16.30;75.30;;;;;;4985659;28;20054;-63
2021/08/18 03:08:13;;;;;;;13.38;8.05;;;16.30;75.40;;;;;;4984325;28;20035;-63
2021/08/18 03:10:38;;;;;;;12.70;7.68;;;16.20;75.40;;;;;;4988613;28;20041;-63
2021/08/18 03:13:04;;;;;;;13.48;7.32;;;16.30;75.50;;;;;;4990275;28;20030;-64
2021/08/18 03:15:30;;;;;;;14.32;8.27;;;16.30;75.40;;;;;;5005990;28;20169;-63
2021/08/18 03:17:55;;;;;;;13.60;7.50;;;16.30;75.40;;;;;;4992496;28;20038;-63
2021/08/18 03:20:21;;;;;;;12.60;7.43;;;16.30;75.50;;;;;;4992631;28;20037;-64
2021/08/18 03:22:47;;;;;;;11.68;7.25;;;16.30;75.40;;;;;;4989536;28;20118;-63
2021/08/18 03:25:14;;;;;;;11.68;7.35;;;16.30;75.50;;;;;;4991872;28;20026;-63
2021/08/18 03:27:40;;;;;;;15.32;7.95;;;16.30;75.40;;;;;;4991982;28;20089;-63
2021/08/18 03:30:07;;;;;;;11.60;7.32;;;16.30;75.40;;;;;;4990360;28;20038;-63
2021/08/18 03:32:33;;;;;;;15.18;6.78;;;16.30;75.50;;;;;;4989751;28;20149;-63
2021/08/18 03:34:59;;;;;;;13.95;7.38;;;16.30;75.40;;;;;;4991436;28;20802;-63
2021/08/18 03:37:24;;;;;;;12.05;7.65;;;16.30;75.50;;;;;;4991735;28;20131;-63
2021/08/18 03:39:50;;;;;;;13.73;7.40;;;16.30;75.50;;;;;;4990950;28;20035;-63
2021/08/18 03:42:16;;;;;;;12.52;7.18;;;16.30;75.60;;;;;;4991024;28;20038;-63
2021/08/18 03:44:42;;;;;;;11.27;7.32;;;16.30;75.60;;;;;;4988051;28;21227;-63
2021/08/18 03:47:07;;;;;;;13.20;7.50;;;16.30;75.70;;;;;;4991275;28;20050;-63
2021/08/18 03:49:33;;;;;;;12.55;7.65;;;16.30;75.80;;;;;;4991770;28;20042;-63
2021/08/18 03:51:59;;;;;;;12.02;7.78;;;16.30;75.80;;;;;;4991652;28;20092;-63
2021/08/18 03:54:25;;;;;;;12.50;6.97;;;16.30;75.70;;;;;;4990206;28;21026;-63
2021/08/18 03:56:50;;;;;;;39.95;19.80;;;16.30;75.70;;;;;;5006261;28;20117;-63
2021/08/18 03:59:16;;;;;;;19.75;11.68;;;16.30;75.80;;;;;;4989694;28;20030;-63
2021/08/18 04:01:41;;;;;;;16.13;9.82;;;16.30;75.80;;;;;;4991123;28;20046;-63
2021/08/18 04:04:07;;;;;;;16.15;9.10;;;16.30;75.80;;;;;;4990474;28;20030;-63
2021/08/18 04:06:33;;;;;;;19.05;11.98;;;16.30;75.80;;;;;;4991964;28;20398;-63
2021/08/18 04:08:58;;;;;;;15.23;11.57;;;16.30;75.80;;;;;;4992582;28;20426;-63
2021/08/18 04:11:25;;;;;;;29.13;19.58;;;16.30;75.80;;;;;;4986405;28;20039;-63
2021/08/18 04:13:51;;;;;;;28.70;19.88;;;16.30;75.90;;;;;;4990532;28;20045;-63
2021/08/18 04:16:16;;;;;;;16.60;10.05;;;16.40;76.00;;;;;;4990755;28;20022;-63
2021/08/18 04:18:44;;;;;;;14.48;8.65;;;16.40;76.00;;;;;;4989909;28;22403;-63
2021/08/18 04:21:10;;;;;;;13.95;8.15;;;16.40;75.90;;;;;;4987597;28;20038;-64
2021/08/18 04:23:35;;;;;;;18.27;11.13;;;16.40;76.00;;;;;;4986010;28;20564;-63
2021/08/18 04:26:01;;;;;;;15.15;8.18;;;16.40;76.00;;;;;;4983408;28;20122;-63
2021/08/18 04:28:27;;;;;;;12.85;8.15;;;16.40;75.90;;;;;;5003283;28;20201;-67
2021/08/18 04:30:53;;;;;;;13.18;8.00;;;16.40;76.00;;;;;;4985313;28;20667;-66
2021/08/18 04:33:18;;;;;;;15.30;8.60;;;16.30;76.80;;;;;;4986997;28;20454;-64
2021/08/18 04:35:44;;;;;;;14.18;8.32;;;16.30;76.00;;;;;;4988689;28;20038;-64
2021/08/18 04:38:10;;;;;;;16.23;8.20;;;16.30;76.20;;;;;;4988774;28;20525;-64
2021/08/18 04:40:35;;;;;;;14.95;8.32;;;16.30;76.30;;;;;;4981996;28;20117;-64
2021/08/18 04:43:01;;;;;;;12.32;7.65;;;16.30;76.40;;;;;;4987499;28;20054;-64
2021/08/18 04:45:27;;;;;;;13.85;8.30;;;16.30;76.50;;;;;;4987887;28;20031;-63
2021/08/18 04:47:52;;;;;;;16.08;8.90;;;16.20;76.60;;;;;;4987669;28;20494;-64
2021/08/18 04:50:19;;;;;;;14.20;8.35;;;16.20;76.80;;;;;;4988004;28;20026;-64
2021/08/18 04:52:45;;;;;;;14.73;8.43;;;16.20;76.80;;;;;;4987409;28;20402;-64
2021/08/18 04:55:13;;;;;;;15.95;8.32;;;16.20;76.80;;;;;;4985913;28;20077;-64
2021/08/18 04:57:39;;;;;;;16.10;8.70;;;16.20;77.00;;;;;;4995257;28;20133;-64
2021/08/18 05:00:06;;;;;;;13.80;8.60;;;16.20;77.00;;;;;;5002986;28;20414;-64
2021/08/18 05:02:34;;;;;;;17.98;8.90;;;16.30;77.00;;;;;;4985725;28;20127;-63
2021/08/18 05:05:01;;;;;;;15.07;9.13;;;16.30;77.20;;;;;;4988650;28;20035;-64
2021/08/18 05:07:27;;;;;;;15.88;8.70;;;16.30;77.00;;;;;;4987317;28;20063;-64
2021/08/18 05:09:53;;;;;;;15.95;9.55;;;16.30;77.10;;;;;;4984144;28;20053;-64
2021/08/18 05:12:19;;;;;;;17.08;9.50;;;16.30;77.20;;;;;;4982656;28;20046;-63
2021/08/18 05:14:44;;;;;;;14.02;8.70;;;16.30;77.20;;;;;;4987788;28;20038;-64
2021/08/18 05:17:10;;;;;;;14.85;9.00;;;16.30;77.20;;;;;;4988020;28;20129;-64
2021/08/18 05:19:35;;;;;;;15.65;8.82;;;16.30;77.20;;;;;;4987109;28;20520;-62
2021/08/18 05:22:01;;;;;;;18.05;9.88;;;16.30;77.10;;;;;;4979125;28;20034;-63
2021/08/18 05:24:27;;;;;;;15.73;9.30;;;16.30;77.20;;;;;;4985581;28;20030;-64
2021/08/18 05:26:52;;;;;;;17.10;9.23;;;16.30;77.20;;;;;;4986212;28;20035;-64
2021/08/18 05:29:18;;;;;;;17.05;9.20;;;16.30;77.20;;;;;;4987428;28;20125;-63
2021/08/18 05:31:44;;;;;;;15.15;9.20;;;16.30;77.30;;;;;;4986285;28;20102;-64
2021/08/18 05:34:09;;;;;;;16.58;9.45;;;16.30;77.30;;;;;;4988583;28;20026;-64
2021/08/18 05:36:35;;;;;;;18.45;9.32;;;16.40;77.40;;;;;;4985066;28;20117;-64
2021/08/18 05:39:01;;;;;;;18.48;9.82;;;16.40;77.30;;;;;;5000883;28;20031;-64
2021/08/18 05:41:26;;;;;;;18.08;10.27;;;16.40;77.30;;;;;;4985025;28;20030;-64
2021/08/18 05:43:52;;;;;;;16.95;9.63;;;16.40;77.30;;;;;;4979492;28;20042;-64
2021/08/18 05:46:18;;;;;;;19.13;9.80;;;16.40;77.30;;;;;;4984870;28;20077;-64
2021/08/18 05:48:43;;;;;;;18.23;9.43;;;16.40;77.30;;;;;;5001868;28;20042;-64
2021/08/18 05:51:09;;;;;;;17.90;9.20;;;16.50;77.40;;;;;;4987405;28;20037;-64
2021/08/18 05:53:35;;;;;;;16.63;9.55;;;16.40;77.30;;;;;;4985527;28;20121;-64
2021/08/18 05:56:01;;;;;;;15.90;9.82;;;16.40;77.20;;;;;;4984529;28;20030;-63
2021/08/18 05:58:26;;;;;;;17.23;9.55;;;16.40;77.20;;;;;;5000426;28;20054;-64
2021/08/18 06:00:52;;;;;;;16.42;9.48;;;16.50;77.30;;;;;;4985252;28;20098;-64
2021/08/18 06:03:17;;;;;;;15.77;9.23;;;16.50;77.20;;;;;;4986834;28;20030;-64
2021/08/18 06:05:43;;;;;;;19.98;10.48;;;16.50;77.30;;;;;;4972152;28;22095;-64
2021/08/18 06:08:09;;;;;;;20.88;10.80;;;16.50;77.30;;;;;;4962587;28;20038;-64
2021/08/18 06:10:35;;;;;;;19.02;9.90;;;16.60;77.30;;;;;;4968064;28;20034;-64
2021/08/18 06:13:01;;;;;;;14.93;9.30;;;16.60;77.10;;;;;;4970472;28;20038;-64
2021/08/18 06:15:28;;;;;;;18.98;10.48;;;16.60;77.00;;;;;;4978302;28;20410;-64
2021/08/18 06:17:54;;;;;;;18.55;10.35;;;16.60;77.00;;;;;;4965152;28;20098;-64
2021/08/18 06:20:20;;;;;;;19.58;10.13;;;16.60;76.90;;;;;;4973052;28;20502;-64
2021/08/18 06:22:46;;;;;;;17.27;10.32;;;16.70;77.00;;;;;;4970082;28;20047;-64
2021/08/18 06:25:12;;;;;;;17.85;10.35;;;16.70;76.80;;;;;;4975316;28;20097;-64
2021/08/18 06:27:38;;;;;;;18.92;11.25;;;16.70;76.80;;;;;;4972209;28;20050;-64
2021/08/18 06:30:05;;;;;;;18.45;10.65;;;16.70;76.80;;;;;;4973903;28;20113;-64
2021/08/18 06:32:31;;;;;;;19.15;11.05;;;16.80;76.80;;;;;;4973991;28;20034;-64
2021/08/18 06:34:57;;;;;;;19.90;10.57;;;16.80;76.80;;;;;;4972983;28;20038;-64
2021/08/18 06:37:22;;;;;;;17.33;10.65;;;16.80;76.80;;;;;;4963835;28;20034;-64
2021/08/18 06:39:49;;;;;;;17.15;10.57;;;16.80;76.80;;;;;;4978093;28;20093;-63
2021/08/18 06:42:15;;;;;;;18.90;11.60;;;16.80;76.70;;;;;;4972102;28;20070;-64
2021/08/18 06:44:41;;;;;;;17.40;10.38;;;16.80;76.80;;;;;;4973421;28;20035;-64
2021/08/18 06:47:07;;;;;;;18.35;10.90;;;16.80;76.70;;;;;;4965695;28;20050;-64
2021/08/18 06:49:33;;;;;;;19.02;10.38;;;16.90;76.60;;;;;;4972669;28;20047;-64
2021/08/18 06:51:59;;;;;;;14.45;9.88;;;16.90;76.60;;;;;;4972058;28;20029;-64
2021/08/18 06:54:25;;;;;;;18.08;10.50;;;16.90;76.50;;;;;;4973298;28;20449;-64
2021/08/18 06:56:51;;;;;;;20.35;10.93;;;16.90;76.50;;;;;;4972712;28;20053;-64
2021/08/18 06:59:16;;;;;;;17.05;10.55;;;17.00;76.50;;;;;;4973537;28;20510;-64
2021/08/18 07:01:43;;;;;;;16.48;9.80;;;17.00;76.60;;;;;;4964481;28;20035;-63
2021/08/18 07:04:08;;;;;;;16.65;10.63;;;17.00;76.60;;;;;;4985997;28;20043;-64
2021/08/18 07:06:34;;;;;;;18.63;10.30;;;17.10;76.60;;;;;;4970103;28;20049;-64
2021/08/18 07:09:00;;;;;;;18.73;11.45;;;17.00;76.50;;;;;;4990887;28;20031;-64
2021/08/18 07:11:26;;;;;;;17.35;10.90;;;17.10;76.50;;;;;;4967956;28;20173;-64
2021/08/18 07:13:52;;;;;;;17.08;10.02;;;17.10;76.50;;;;;;4971565;28;20049;-64
2021/08/18 07:16:18;;;;;;;17.13;10.02;;;17.20;76.40;;;;;;4967482;28;20038;-63
2021/08/18 07:18:43;;;;;;;21.75;11.18;;;17.20;76.20;;;;;;4975511;28;20042;-63
2021/08/18 07:21:09;;;;;;;16.58;10.57;;;17.30;76.30;;;;;;4971904;28;20046;-64
2021/08/18 07:23:35;;;;;;;16.73;10.48;;;17.30;76.00;;;;;;4975299;28;20092;-64
2021/08/18 07:26:00;;;;;;;18.77;11.07;;;17.40;75.80;;;;;;4969171;28;20072;-64
2021/08/18 07:28:26;;;;;;;16.23;10.65;;;17.40;75.60;;;;;;4964048;28;20038;-63
2021/08/18 07:30:51;;;;;;;16.80;10.40;;;17.50;75.40;;;;;;4974773;28;20061;-65
2021/08/18 07:33:17;;;;;;;19.58;11.20;;;17.50;75.30;;;;;;4975765;28;20291;-64
2021/08/18 07:35:43;;;;;;;16.52;10.20;;;17.50;75.10;;;;;;4976959;28;20046;-64
2021/08/18 07:38:08;;;;;;;18.95;10.55;;;17.50;74.90;;;;;;4972954;28;20125;-64
2021/08/18 07:40:34;;;;;;;17.40;11.00;;;17.60;74.60;;;;;;4972916;28;20133;-64
2021/08/18 07:42:59;;;;;;;17.08;10.45;;;17.60;74.60;;;;;;4975588;28;20270;-65
2021/08/18 07:45:27;;;;;;;17.02;9.85;;;17.60;74.50;;;;;;4977628;28;20093;-64
2021/08/18 07:47:53;;;;;;;15.93;10.07;;;17.70;74.40;;;;;;4969369;28;20490;-64
2021/08/18 07:50:19;;;;;;;16.17;9.70;;;17.70;74.40;;;;;;4974614;28;20030;-64
2021/08/18 07:52:44;;;;;;;16.27;10.05;;;17.80;74.60;;;;;;4975094;28;20069;-64
2021/08/18 07:55:11;;;;;;;16.38;10.48;;;17.80;74.60;;;;;;4979103;28;20045;-64
2021/08/18 07:57:37;;;;;;;16.60;9.70;;;17.90;74.40;;;;;;4985293;28;20469;-64
2021/08/18 08:00:06;;;;;;;16.13;9.60;;;17.90;74.30;;;;;;4983675;28;20062;-64
2021/08/18 08:02:33;;;;;;;14.30;9.98;;;18.00;73.80;;;;;;4978572;28;20034;-64
2021/08/18 08:04:58;;;;;;;15.65;9.82;;;18.10;73.50;;;;;;4981719;28;20044;-64
2021/08/18 08:07:24;;;;;;;17.33;9.90;;;18.10;73.30;;;;;;4984755;28;20030;-64
2021/08/18 08:09:50;;;;;;;16.48;9.77;;;18.20;73.00;;;;;;4982599;28;20043;-64
2021/08/18 08:12:15;;;;;;;15.05;9.60;;;18.20;72.80;;;;;;4993107;28;20097;-64
2021/08/18 08:14:41;;;;;;;16.52;9.27;;;18.30;72.60;;;;;;4974288;28;20034;-64
2021/08/18 08:17:07;;;;;;;16.85;9.38;;;18.30;73.20;;;;;;4975757;28;20041;-64
2021/08/18 08:19:33;;;;;;;14.07;8.88;;;18.40;72.00;;;;;;4981956;28;20031;-64
2021/08/18 08:21:59;;;;;;;13.60;9.40;;;18.40;71.70;;;;;;4980723;28;20054;-65
2021/08/18 08:24:24;;;;;;;15.40;9.57;;;18.40;71.50;;;;;;4981123;28;20121;-64
2021/08/18 08:26:50;;;;;;;15.27;9.93;;;18.40;71.50;;;;;;4977699;28;20034;-64
2021/08/18 08:29:16;;;;;;;14.52;8.95;;;18.40;71.60;;;;;;4969796;28;20562;-64
2021/08/18 08:31:43;;;;;;;14.13;9.20;;;18.40;71.80;;;;;;4979915;28;20112;-64
2021/08/18 08:34:09;;;;;;;13.02;9.13;;;18.50;71.80;;;;;;4982290;28;20520;-64
2021/08/18 08:36:35;;;;;;;13.95;9.18;;;18.50;71.60;;;;;;4979447;28;20026;-64
2021/08/18 08:39:00;;;;;;;14.85;9.10;;;18.60;71.50;;;;;;5000212;28;20085;-64
2021/08/18 08:41:27;;;;;;;16.02;8.25;;;18.60;71.40;;;;;;4982746;28;20056;-64
2021/08/18 08:43:53;;;;;;;14.90;9.20;;;18.70;71.50;;;;;;4982285;28;20658;-64
2021/08/18 08:46:19;;;;;;;14.45;9.07;;;18.70;71.10;;;;;;4971514;28;20048;-64
2021/08/18 08:48:44;;;;;;;13.25;8.50;;;18.80;71.60;;;;;;4979341;28;20042;-64
2021/08/18 08:51:10;;;;;;;12.10;8.38;;;18.90;70.40;;;;;;4998672;28;20576;-65
2021/08/18 08:53:36;;;;;;;13.35;8.48;;;18.90;70.20;;;;;;4982638;28;20049;-65
2021/08/18 08:56:03;;;;;;;12.85;7.85;;;18.90;69.80;;;;;;4984443;28;20035;-64
2021/08/18 08:58:28;;;;;;;12.43;8.27;;;19.00;69.60;;;;;;4981624;28;20030;-64
2021/08/18 09:00:54;;;;;;;10.75;8.23;;;19.00;69.20;;;;;;4982308;28;20528;-64
2021/08/18 09:03:23;;;;;;;14.15;7.78;;;19.10;69.50;;;;;;4973992;28;20081;-64
2021/08/18 09:05:50;;;;;;;12.57;8.25;;;19.10;69.30;;;;;;4977426;28;20496;-64
2021/08/18 09:08:20;;;;;;;13.35;7.88;;;19.10;69.20;;;;;;4975024;28;20035;-64
2021/08/18 09:11:12;;;;;;;12.55;7.22;;;19.20;68.70;;;;;;4969593;28;20039;-64
2021/08/18 09:13:47;;;;;;;9.52;7.15;;;19.20;67.80;;;;;;4972918;28;20031;-64
2021/08/18 09:16:13;;;;;;;;;;;19.30;67.80;;;;;;4975555;28;20589;-64
2021/08/18 09:18:52;;;;;;;9.63;6.35;;;19.30;67.30;;;;;;4990121;28;19917;-64
2021/08/18 09:21:38;;;;;;;10.75;6.20;;;19.30;68.00;;;;;;4973917;28;20053;-64
2021/08/18 09:24:16;;;;;;;10.45;6.65;;;19.40;67.80;;;;;;4973215;28;20042;-64
2021/08/18 09:26:48;;;;;;;10.40;7.07;;;19.40;67.50;;;;;;4979452;28;20041;-64
2021/08/18 09:29:42;;;;;;;10.48;6.60;;;19.40;68.30;;;;;;4981070;28;20046;-64
2021/08/18 09:32:32;;;;;;;9.45;6.57;;;19.40;67.30;;;;;;4975630;28;20053;-65
2021/08/18 09:35:03;;;;;;;10.02;6.53;;;19.40;67.30;;;;;;4979802;28;20916;-64
2021/08/18 09:37:29;;;;;;;9.80;6.78;;;19.50;67.90;;;;;;4979917;28;20039;-64
2021/08/18 09:39:55;;;;;;;9.98;6.63;;;19.50;68.00;;;;;;4975979;28;20043;-64
2021/08/18 09:42:29;;;;;;;10.68;6.18;;;19.60;67.50;;;;;;4971985;28;20035;-67
2021/08/18 09:45:15;;;;;;;11.57;6.65;;;19.60;67.70;;;;;;4980338;28;20045;-64
2021/08/18 09:48:04;;;;;;;10.20;6.18;;;19.70;67.70;;;;;;4988577;28;20042;-64
2021/08/18 09:50:49;;;;;;;8.60;6.53;;;19.70;67.40;;;;;;4979938;28;20406;-64
2021/08/18 09:53:23;;;;;;;7.57;5.40;;;19.80;66.50;;;;;;4977019;28;20053;-64
2021/08/18 09:55:51;;;;;;;8.40;5.50;;;19.80;66.90;;;;;;4983481;28;20133;-64
2021/08/18 09:58:22;;;;;;;7.85;4.97;;;19.90;67.10;;;;;;4983718;28;20038;-64
2021/08/18 10:00:48;;;;;;;8.13;4.68;;;20.00;66.80;;;;;;4979779;28;20087;-64
2021/08/18 10:03:14;;;;;;;6.60;4.90;;;20.10;66.70;;;;;;4986555;28;20116;-64
2021/08/18 10:05:41;;;;;;;7.07;4.57;;;20.10;66.90;;;;;;4986265;28;20059;-64
2021/08/18 10:08:08;;;;;;;6.93;4.75;;;20.20;66.60;;;;;;4987081;28;20034;-64
2021/08/18 10:10:38;;;;;;;6.72;4.50;;;20.30;66.00;;;;;;4980287;28;20404;-65
2021/08/18 10:13:08;;;;;;;7.20;4.82;;;20.40;66.20;;;;;;5000762;28;20034;-64
2021/08/18 10:15:35;;;;;;;6.22;4.38;;;20.50;65.50;;;;;;4986653;28;20421;-65
2021/08/18 10:18:00;;;;;;;6.97;5.25;;;20.50;65.20;;;;;;4988113;28;20027;-65
2021/08/18 10:20:27;;;;;;;6.63;4.60;;;20.60;64.50;;;;;;4985831;28;20121;-65
2021/08/18 10:23:12;;;;;;;6.32;4.15;;;20.60;64.50;;;;;;4983596;28;20446;-64
2021/08/18 10:25:46;;;;;;;5.50;3.90;;;20.60;63.70;;;;;;4986912;28;20036;-64
2021/08/18 10:28:13;;;;;;;4.00;3.33;;;20.70;63.30;;;;;;4986653;28;20567;-65
2021/08/18 10:30:51;;;;;;;6.07;4.60;;;20.70;63.80;;;;;;4985690;28;20038;-64
2021/08/18 10:33:56;;;;;;;5.00;3.92;;;20.80;62.80;;;;;;4985398;28;20034;-64
2021/08/18 10:36:40;;;;;;;5.50;4.03;;;20.80;63.00;;;;;;4982845;28;20555;-64
2021/08/18 10:39:36;;;;;;;8.95;4.35;;;20.90;62.90;;;;;;4978757;28;20034;-64
2021/08/18 10:42:09;;;;;;;6.35;4.45;;;21.00;63.50;;;;;;4977073;28;20026;-64
2021/08/18 10:44:47;;;;;;;5.20;3.92;;;21.00;64.00;;;;;;4982844;28;20442;-65
2021/08/18 10:47:37;;;;;;;6.30;3.72;;;21.00;63.10;;;;;;4984391;28;20521;-65
2021/08/18 10:50:12;;;;;;;4.93;3.50;;;21.00;62.60;;;;;;4994076;28;20383;-64
2021/08/18 10:52:37;;;;;;;5.15;3.65;;;21.10;61.40;;;;;;4983831;28;20529;-64
2021/08/18 10:55:03;;;;;;;6.07;3.90;;;21.10;62.70;;;;;;4984039;28;20065;-64
2021/08/18 10:57:49;;;;;;;5.45;4.05;;;21.10;62.50;;;;;;4985158;28;20077;-64
2021/08/18 11:00:34;;;;;;;5.13;3.80;;;21.10;61.20;;;;;;4981153;28;20026;-64
2021/08/18 11:03:06;;;;;;;5.63;3.33;;;21.10;61.60;;;;;;4981825;28;20058;-64
2021/08/18 11:05:38;;;;;;;3.25;2.95;;;21.10;61.60;;;;;;4992653;28;20057;-64
2021/08/18 11:08:15;;;;;;;3.50;2.88;;;21.10;61.00;;;;;;4983823;28;20502;-64
2021/08/18 11:10:50;;;;;;;3.55;3.10;;;21.10;60.50;;;;;;4979889;28;20081;-64
2021/08/18 11:13:17;;;;;;;4.68;3.63;;;21.10;60.70;;;;;;4981401;28;20100;-64
2021/08/18 11:15:43;;;;;;;4.75;3.25;;;21.10;61.50;;;;;;4983994;28;20039;-64
2021/08/18 11:18:10;;;;;;;5.25;3.30;;;21.10;61.90;;;;;;5001129;28;20080;-65
2021/08/18 11:20:36;;;;;;;5.15;3.58;;;21.10;61.90;;;;;;4979336;28;20034;-64
2021/08/18 11:23:05;;;;;;;4.55;3.40;;;21.10;61.90;;;;;;4998785;28;20554;-64
2021/08/18 11:25:39;;;;;;;5.07;3.40;;;21.10;61.70;;;;;;4981802;28;20558;-65
2021/08/18 11:28:05;;;;;;;3.35;3.05;;;21.20;61.50;;;;;;4982683;28;20050;-65
2021/08/18 11:30:32;;;;;;;4.13;3.30;;;21.20;61.50;;;;;;4982193;28;20034;-64
2021/08/18 11:33:20;;;;;;;3.08;2.70;;;21.20;61.20;;;;;;4988180;28;20090;-64
2021/08/18 11:35:46;;;;;;;5.43;2.80;;;21.20;60.60;;;;;;4988173;28;20054;-65
2021/08/18 11:38:12;;;;;;;4.68;3.00;;;21.20;61.40;;;;;;4997555;28;20092;-65
2021/08/18 11:40:39;;;;;;;4.85;2.85;;;21.30;61.50;;;;;;4982976;28;20039;-64
2021/08/18 11:43:06;;;;;;;3.67;2.72;;;21.30;61.70;;;;;;4982121;28;20144;-64
2021/08/18 11:45:34;;;;;;;2.92;2.42;;;21.30;61.30;;;;;;4987959;28;20401;-65
2021/08/18 11:48:27;;;;;;;2.92;2.20;;;21.40;61.30;;;;;;4985517;28;20034;-64
2021/08/18 11:50:56;;;;;;;2.33;2.13;;;21.40;59.60;;;;;;4985628;28;20582;-64
2021/08/18 11:53:23;;;;;;;2.97;2.67;;;21.50;60.40;;;;;;4986822;28;20046;-64
2021/08/18 11:56:04;;;;;;;2.97;2.38;;;21.60;60.10;;;;;;4985974;28;20030;-64
2021/08/18 11:58:32;;;;;;;3.20;2.53;;;21.60;59.90;;;;;;4986776;28;20062;-64
2021/08/18 12:01:00;;;;;;;3.00;2.40;;;21.60;59.70;;;;;;4983292;28;20151;-64
2021/08/18 12:03:26;;;;;;;2.30;2.10;;;21.70;60.20;;;;;;4986611;28;20057;-65
2021/08/18 12:06:01;;;;;;;2.70;2.20;;;21.80;60.10;;;;;;4987307;28;20046;-65
2021/08/18 12:08:35;;;;;;;3.03;2.50;;;21.80;59.40;;;;;;5001305;28;20409;-64
2021/08/18 12:11:01;;;;;;;3.00;2.38;;;21.80;59.60;;;;;;4979326;28;21686;-65
2021/08/18 12:13:40;;;;;;;2.47;2.28;;;21.90;60.10;;;;;;4986556;28;20448;-65
2021/08/18 12:16:29;;;;;;;3.38;2.50;;;21.90;59.30;;;;;;4986965;28;20050;-65
2021/08/18 12:19:14;;;;;;;4.10;2.85;;;22.00;59.10;;;;;;4986791;28;20445;-65
2021/08/18 12:21:40;;;;;;;4.13;2.60;;;22.10;60.00;;;;;;4984614;28;20026;-64
2021/08/18 12:24:12;;;;;;;3.97;2.53;;;22.10;59.60;;;;;;5001221;28;20820;-64
2021/08/18 12:26:46;;;;;;;3.63;2.55;;;22.10;59.70;;;;;;4986376;28;20062;-65
2021/08/18 12:29:16;;;;;;;2.95;2.20;;;22.20;59.10;;;;;;4987455;28;20035;-65
2021/08/18 12:32:04;;;;;;;3.50;2.35;;;22.20;58.60;;;;;;4983833;28;20034;-65
2021/08/18 12:34:46;;;;;;;3.20;2.58;;;22.30;58.60;;;;;;4985213;28;20045;-65
2021/08/18 12:37:21;;;;;;;2.30;2.10;;;22.30;57.40;;;;;;4987111;28;20426;-64
2021/08/18 12:39:52;;;;;;;4.00;2.30;;;22.30;58.30;;;;;;4986483;28;20069;-64
2021/08/18 12:42:27;;;;;;;3.80;2.13;;;22.30;57.90;;;;;;4981723;28;20092;-65
2021/08/18 12:45:00;;;;;;;2.70;1.95;;;22.30;58.00;;;;;;4983483;28;20039;-65